createdAt,value
2018-02-22T00:00:55.955Z,1022.93
2018-02-22T00:01:55.940Z,1022.94
2018-02-22T00:02:55.888Z,1022.92
2018-02-22T00:03:55.897Z,1022.95
2018-02-22T00:04:55.826Z,1022.94
2018-02-22T00:05:55.792Z,1022.92
2018-02-22T00:06:55.762Z,1022.92
2018-02-22T00:07:55.723Z,1022.92
2018-02-22T00:08:55.697Z,1022.90
2018-02-22T00:09:55.693Z,1022.92
2018-02-22T00:10:55.634Z,1022.94
2018-02-22T00:11:55.594Z,1022.93
2018-02-22T00:12:55.598Z,1022.88
2018-02-22T00:13:55.530Z,1022.91
2018-02-22T00:14:55.547Z,1022.90
2018-02-22T00:15:55.531Z,1022.90
2018-02-22T00:16:55.429Z,1022.87
2018-02-22T00:17:55.399Z,1022.90
2018-02-22T00:18:55.366Z,1022.89
2018-02-22T00:19:55.332Z,1022.91
2018-02-22T00:20:55.299Z,1022.85
2018-02-22T00:21:55.292Z,1022.87
2018-02-22T00:22:55.302Z,1022.88
2018-02-22T00:23:55.200Z,1022.91
2018-02-22T00:24:55.171Z,1022.85
2018-02-22T00:25:55.136Z,1022.88
2018-02-22T00:26:55.140Z,1022.93
2018-02-22T00:27:55.078Z,1022.89
2018-02-22T00:28:55.039Z,1022.90
2018-02-22T00:29:55.010Z,1022.86
2018-02-22T00:30:54.974Z,1022.90
2018-02-22T00:31:54.967Z,1022.91
2018-02-22T00:32:54.954Z,1022.93
2018-02-22T00:33:54.874Z,1022.92
2018-02-22T00:34:54.843Z,1022.89
2018-02-22T00:35:55.567Z,1022.90
2018-02-22T00:36:54.776Z,1022.91
2018-02-22T00:37:54.753Z,1022.88
2018-02-22T00:38:54.745Z,1022.86
2018-02-22T00:39:54.681Z,1022.89
2018-02-22T00:40:54.654Z,1022.89
2018-02-22T00:41:54.620Z,1022.89
2018-02-22T00:42:54.579Z,1022.89
2018-02-22T00:43:54.587Z,1022.86
2018-02-22T00:44:54.517Z,1022.85
2018-02-22T00:45:54.483Z,1022.85
2018-02-22T00:46:54.448Z,1022.85
2018-02-22T00:47:54.424Z,1022.86
2018-02-22T00:48:54.398Z,1022.83
2018-02-22T00:49:54.405Z,1022.87
2018-02-22T00:50:54.316Z,1022.84
2018-02-22T00:51:54.313Z,1022.86
2018-02-22T00:52:54.253Z,1022.86
2018-02-22T00:53:54.220Z,1022.86
2018-02-22T00:54:54.189Z,1022.84
2018-02-22T00:55:54.154Z,1022.83
2018-02-22T00:56:54.151Z,1022.83
2018-02-22T00:57:54.104Z,1022.81
2018-02-22T00:58:54.056Z,1022.80
2018-02-22T00:59:54.022Z,1022.81
2018-02-22T01:00:53.990Z,1022.79
2018-02-22T01:01:53.982Z,1022.79
2018-02-22T01:02:53.923Z,1022.83
2018-02-22T01:03:53.891Z,1022.79
2018-02-22T01:04:53.856Z,1022.78
2018-02-22T01:05:53.846Z,1022.75
2018-02-22T01:06:53.819Z,1022.77
2018-02-22T01:07:53.759Z,1022.75
2018-02-22T01:08:53.734Z,1022.78
2018-02-22T01:09:53.703Z,1022.80
2018-02-22T01:10:53.665Z,1022.79
2018-02-22T01:11:53.657Z,1022.80
2018-02-22T01:12:54.529Z,1022.81
2018-02-22T01:13:53.601Z,1022.80
2018-02-22T01:14:53.533Z,1022.78
2018-02-22T01:15:53.504Z,1022.82
2018-02-22T01:16:53.506Z,1022.85
2018-02-22T01:17:53.430Z,1022.82
2018-02-22T01:18:53.414Z,1022.83
2018-02-22T01:19:53.366Z,1022.79
2018-02-22T01:20:53.334Z,1022.81
2018-02-22T01:21:53.340Z,1022.81
2018-02-22T01:22:53.285Z,1022.81
2018-02-22T01:23:53.234Z,1022.82
2018-02-22T01:24:53.204Z,1022.82
2018-02-22T01:25:53.164Z,1022.81
2018-02-22T01:26:53.167Z,1022.81
2018-02-22T01:27:53.101Z,1022.79
2018-02-22T01:28:53.073Z,1022.75
2018-02-22T01:29:53.039Z,1022.73
2018-02-22T01:30:52.999Z,1022.73
2018-02-22T01:31:52.999Z,1022.74
2018-02-22T01:32:52.930Z,1022.73
2018-02-22T01:33:52.915Z,1022.76
2018-02-22T01:34:52.868Z,1022.78
2018-02-22T01:35:52.836Z,1022.76
2018-02-22T01:36:52.834Z,1022.77
2018-02-22T01:37:52.774Z,1022.79
2018-02-22T01:38:52.737Z,1022.83
2018-02-22T01:39:52.747Z,1022.79
2018-02-22T01:40:52.669Z,1022.80
2018-02-22T01:41:52.665Z,1022.81
2018-02-22T01:42:52.622Z,1022.86
2018-02-22T01:43:52.572Z,1022.83
2018-02-22T01:44:52.538Z,1022.83
2018-02-22T01:45:52.514Z,1022.82
2018-02-22T01:46:52.509Z,1022.79
2018-02-22T01:47:52.438Z,1022.77
2018-02-22T01:48:52.410Z,1022.83
2018-02-22T01:49:52.376Z,1022.81
2018-02-22T01:50:52.345Z,1022.83
2018-02-22T01:51:52.330Z,1022.79
2018-02-22T01:52:52.274Z,1022.82
2018-02-22T01:53:52.245Z,1022.81
2018-02-22T01:54:52.208Z,1022.80
2018-02-22T01:55:52.213Z,1022.77
2018-02-22T01:56:52.147Z,1022.80
2018-02-22T01:57:52.130Z,1022.81
2018-02-22T01:58:52.080Z,1022.77
2018-02-22T01:59:52.048Z,1022.75
2018-02-22T02:00:52.044Z,1022.75
2018-02-22T02:01:52.021Z,1022.75
2018-02-22T02:02:51.949Z,1022.75
2018-02-22T02:03:51.952Z,1022.74
2018-02-22T02:04:51.892Z,1022.72
2018-02-22T02:05:51.851Z,1022.77
2018-02-22T02:06:51.832Z,1022.72
2018-02-22T02:07:51.847Z,1022.72
2018-02-22T02:08:51.753Z,1022.75
2018-02-22T02:09:51.722Z,1022.69
2018-02-22T02:10:51.715Z,1022.70
2018-02-22T02:11:51.657Z,1022.67
2018-02-22T02:12:51.628Z,1022.69
2018-02-22T02:13:51.590Z,1022.71
2018-02-22T02:14:51.626Z,1022.68
2018-02-22T02:15:51.553Z,1022.68
2018-02-22T02:16:51.493Z,1022.68
2018-02-22T02:17:51.461Z,1022.68
2018-02-22T02:18:51.428Z,1022.66
2018-02-22T02:19:51.405Z,1022.67
2018-02-22T02:20:51.388Z,1022.65
2018-02-22T02:21:51.331Z,1022.64
2018-02-22T02:22:51.314Z,1022.64
2018-02-22T02:23:51.269Z,1022.61
2018-02-22T02:24:51.235Z,1022.57
2018-02-22T02:25:51.231Z,1022.54
2018-02-22T02:26:51.169Z,1022.55
2018-02-22T02:27:51.144Z,1022.54
2018-02-22T02:28:51.110Z,1022.50
2018-02-22T02:29:51.080Z,1022.53
2018-02-22T02:30:51.072Z,1022.55
2018-02-22T02:31:51.010Z,1022.57
2018-02-22T02:32:50.983Z,1022.50
2018-02-22T02:33:50.956Z,1022.49
2018-02-22T02:34:50.914Z,1022.51
2018-02-22T02:35:50.912Z,1022.49
2018-02-22T02:36:50.849Z,1022.47
2018-02-22T02:37:50.824Z,1022.53
2018-02-22T02:38:50.788Z,1022.52
2018-02-22T02:39:50.751Z,1022.52
2018-02-22T02:40:50.746Z,1022.52
2018-02-22T02:41:50.691Z,1022.54
2018-02-22T02:42:50.651Z,1022.58
2018-02-22T02:43:50.624Z,1022.59
2018-02-22T02:44:50.597Z,1022.60
2018-02-22T02:45:50.592Z,1022.66
2018-02-22T02:46:51.132Z,1022.68
2018-02-22T02:47:50.502Z,1022.66
2018-02-22T02:48:50.459Z,1022.65
2018-02-22T02:49:50.428Z,1022.62
2018-02-22T02:50:50.432Z,1022.65
2018-02-22T02:51:50.373Z,1022.62
2018-02-22T02:52:50.333Z,1022.62
2018-02-22T02:53:50.308Z,1022.61
2018-02-22T02:54:50.271Z,1022.62
2018-02-22T02:55:50.243Z,1022.63
2018-02-22T02:56:50.304Z,1022.64
2018-02-22T02:57:50.178Z,1022.64
2018-02-22T02:58:50.149Z,1022.65
2018-02-22T02:59:50.115Z,1022.62
2018-02-22T03:00:50.084Z,1022.62
2018-02-22T03:01:50.046Z,1022.60
2018-02-22T03:02:50.041Z,1022.63
2018-02-22T03:03:49.983Z,1022.62
2018-02-22T03:04:49.948Z,1022.61
2018-02-22T03:05:49.922Z,1022.57
2018-02-22T03:06:49.886Z,1022.55
2018-02-22T03:07:49.905Z,1022.54
2018-02-22T03:08:49.819Z,1022.52
2018-02-22T03:09:49.798Z,1022.51
2018-02-22T03:10:49.755Z,1022.52
2018-02-22T03:11:49.738Z,1022.50
2018-02-22T03:12:49.696Z,1022.46
2018-02-22T03:13:49.709Z,1022.47
2018-02-22T03:14:49.629Z,1022.41
2018-02-22T03:15:49.625Z,1022.42
2018-02-22T03:16:49.564Z,1022.45
2018-02-22T03:17:49.537Z,1022.41
2018-02-22T03:18:49.502Z,1022.42
2018-02-22T03:19:49.524Z,1022.37
2018-02-22T03:20:49.435Z,1022.41
2018-02-22T03:21:49.402Z,1022.41
2018-02-22T03:22:49.369Z,1022.40
2018-02-22T03:23:49.353Z,1022.43
2018-02-22T03:24:49.348Z,1022.42
2018-02-22T03:25:49.275Z,1022.41
2018-02-22T03:26:49.243Z,1022.43
2018-02-22T03:27:49.224Z,1022.40
2018-02-22T03:28:49.185Z,1022.40
2018-02-22T03:29:49.148Z,1022.35
2018-02-22T03:30:49.155Z,1022.38
2018-02-22T03:31:49.080Z,1022.39
2018-02-22T03:32:49.050Z,1022.40
2018-02-22T03:33:49.021Z,1022.38
2018-02-22T03:34:48.985Z,1022.42
2018-02-22T03:35:48.954Z,1022.40
2018-02-22T03:36:48.944Z,1022.43
2018-02-22T03:37:48.895Z,1022.46
2018-02-22T03:38:48.861Z,1022.43
2018-02-22T03:39:48.827Z,1022.44
2018-02-22T03:40:48.800Z,1022.46
2018-02-22T03:41:48.806Z,1022.45
2018-02-22T03:42:48.726Z,1022.47
2018-02-22T03:43:48.696Z,1022.45
2018-02-22T03:44:48.669Z,1022.41
2018-02-22T03:45:48.633Z,1022.38
2018-02-22T03:46:48.598Z,1022.44
2018-02-22T03:47:48.604Z,1022.50
2018-02-22T03:48:48.540Z,1022.50
2018-02-22T03:49:48.500Z,1022.47
2018-02-22T03:50:48.471Z,1022.48
2018-02-22T03:51:48.444Z,1022.51
2018-02-22T03:52:48.401Z,1022.51
2018-02-22T03:53:48.404Z,1022.48
2018-02-22T03:54:48.341Z,1022.48
2018-02-22T03:55:48.329Z,1022.48
2018-02-22T03:56:48.273Z,1022.48
2018-02-22T03:57:48.240Z,1022.46
2018-02-22T03:58:48.208Z,1022.44
2018-02-22T03:59:48.180Z,1022.46
2018-02-22T04:00:48.174Z,1022.45
2018-02-22T04:01:48.117Z,1022.43
2018-02-22T04:02:48.082Z,1022.44
2018-02-22T04:03:48.042Z,1022.42
2018-02-22T04:04:48.051Z,1022.46
2018-02-22T04:05:48.008Z,1022.47
2018-02-22T04:06:47.956Z,1022.46
2018-02-22T04:07:47.917Z,1022.43
2018-02-22T04:08:47.896Z,1022.38
2018-02-22T04:09:47.846Z,1022.47
2018-02-22T04:10:47.840Z,1022.39
2018-02-22T04:11:47.783Z,1022.41
2018-02-22T04:12:47.750Z,1022.45
2018-02-22T04:13:47.743Z,1022.53
2018-02-22T04:14:47.683Z,1022.48
2018-02-22T04:15:47.681Z,1022.45
2018-02-22T04:16:47.614Z,1022.49
2018-02-22T04:17:47.590Z,1022.47
2018-02-22T04:18:47.554Z,1022.44
2018-02-22T04:19:47.521Z,1022.48
2018-02-22T04:20:47.519Z,1022.47
2018-02-22T04:21:47.453Z,1022.47
2018-02-22T04:22:47.421Z,1022.44
2018-02-22T04:23:47.386Z,1022.46
2018-02-22T04:24:47.337Z,1022.44
2018-02-22T04:25:47.316Z,1022.46
2018-02-22T04:26:47.267Z,1022.43
2018-02-22T04:27:47.226Z,1022.41
2018-02-22T04:28:47.203Z,1022.40
2018-02-22T04:29:47.163Z,1022.42
2018-02-22T04:30:47.164Z,1022.48
2018-02-22T04:31:47.097Z,1022.44
2018-02-22T04:32:47.063Z,1022.52
2018-02-22T04:33:47.032Z,1022.52
2018-02-22T04:34:46.995Z,1022.53
2018-02-22T04:35:46.992Z,1022.53
2018-02-22T04:36:46.929Z,1022.52
2018-02-22T04:37:46.900Z,1022.53
2018-02-22T04:38:46.871Z,1022.58
2018-02-22T04:39:46.841Z,1022.61
2018-02-22T04:40:46.827Z,1022.61
2018-02-22T04:41:46.762Z,1022.59
2018-02-22T04:42:46.742Z,1022.59
2018-02-22T04:43:46.717Z,1022.59
2018-02-22T04:44:46.677Z,1022.61
2018-02-22T04:45:46.655Z,1022.61
2018-02-22T04:46:46.595Z,1022.59
2018-02-22T04:47:46.574Z,1022.60
2018-02-22T04:48:46.540Z,1022.62
2018-02-22T04:49:46.499Z,1022.58
2018-02-22T04:50:46.502Z,1022.63
2018-02-22T04:51:46.434Z,1022.64
2018-02-22T04:52:46.396Z,1022.62
2018-02-22T04:53:46.370Z,1022.62
2018-02-22T04:54:46.376Z,1022.63
2018-02-22T04:55:46.301Z,1022.62
2018-02-22T04:56:46.266Z,1022.61
2018-02-22T04:57:46.240Z,1022.58
2018-02-22T04:58:46.197Z,1022.60
2018-02-22T04:59:46.198Z,1022.57
2018-02-22T05:00:46.130Z,1022.56
2018-02-22T05:01:46.097Z,1022.55
2018-02-22T05:02:46.068Z,1022.56
2018-02-22T05:03:46.032Z,1022.56
2018-02-22T05:04:46.023Z,1022.52
2018-02-22T05:05:45.967Z,1022.50
2018-02-22T05:06:45.941Z,1022.52
2018-02-22T05:07:45.904Z,1022.52
2018-02-22T05:08:45.870Z,1022.51
2018-02-22T05:09:45.859Z,1022.50
2018-02-22T05:10:45.795Z,1022.52
2018-02-22T05:11:45.763Z,1022.48
2018-02-22T05:12:45.740Z,1022.48
2018-02-22T05:13:45.701Z,1022.53
2018-02-22T05:14:45.689Z,1022.50
2018-02-22T05:15:45.634Z,1022.51
2018-02-22T05:16:45.600Z,1022.50
2018-02-22T05:17:45.565Z,1022.53
2018-02-22T05:18:45.531Z,1022.51
2018-02-22T05:19:45.530Z,1022.50
2018-02-22T05:20:46.076Z,1022.54
2018-02-22T05:21:45.432Z,1022.54
2018-02-22T05:22:45.422Z,1022.56
2018-02-22T05:23:45.377Z,1022.58
2018-02-22T05:24:45.376Z,1022.58
2018-02-22T05:25:45.297Z,1022.58
2018-02-22T05:26:45.287Z,1022.62
2018-02-22T05:27:45.252Z,1022.62
2018-02-22T05:28:45.206Z,1022.62
2018-02-22T05:29:45.200Z,1022.65
2018-02-22T05:30:45.188Z,1022.62
2018-02-22T05:31:45.107Z,1022.59
2018-02-22T05:32:45.062Z,1022.64
2018-02-22T05:33:45.026Z,1022.60
2018-02-22T05:34:45.019Z,1022.62
2018-02-22T05:35:44.963Z,1022.60
2018-02-22T05:36:44.929Z,1022.59
2018-02-22T05:37:44.896Z,1022.63
2018-02-22T05:38:44.866Z,1022.63
2018-02-22T05:39:44.857Z,1022.61
2018-02-22T05:40:44.796Z,1022.62
2018-02-22T05:41:44.759Z,1022.59
2018-02-22T05:42:44.749Z,1022.64
2018-02-22T05:43:44.695Z,1022.61
2018-02-22T05:44:44.703Z,1022.60
2018-02-22T05:45:44.627Z,1022.65
2018-02-22T05:46:44.589Z,1022.59
2018-02-22T05:47:44.558Z,1022.62
2018-02-22T05:48:44.528Z,1022.64
2018-02-22T05:49:44.521Z,1022.62
2018-02-22T05:50:44.484Z,1022.64
2018-02-22T05:51:44.423Z,1022.65
2018-02-22T05:52:44.391Z,1022.64
2018-02-22T05:53:44.356Z,1022.64
2018-02-22T05:54:44.327Z,1022.62
2018-02-22T05:55:44.313Z,1022.61
2018-02-22T05:56:44.266Z,1022.60
2018-02-22T05:57:44.221Z,1022.60
2018-02-22T05:58:44.186Z,1022.61
2018-02-22T05:59:44.166Z,1022.58
2018-02-22T06:00:44.146Z,1022.61
2018-02-22T06:01:44.100Z,1022.57
2018-02-22T06:02:44.053Z,1022.59
2018-02-22T06:03:44.019Z,1022.62
2018-02-22T06:04:44.010Z,1022.65
2018-02-22T06:05:43.955Z,1022.60
2018-02-22T06:06:43.919Z,1022.64
2018-02-22T06:07:43.890Z,1022.63
2018-02-22T06:08:43.855Z,1022.66
2018-02-22T06:09:43.850Z,1022.65
2018-02-22T06:10:43.783Z,1022.65
2018-02-22T06:11:43.750Z,1022.65
2018-02-22T06:12:43.728Z,1022.63
2018-02-22T06:13:43.682Z,1022.73
2018-02-22T06:14:43.673Z,1022.70
2018-02-22T06:15:43.617Z,1022.73
2018-02-22T06:16:43.585Z,1022.72
2018-02-22T06:17:43.552Z,1022.70
2018-02-22T06:18:43.518Z,1022.73
2018-02-22T06:19:43.509Z,1022.74
2018-02-22T06:20:43.449Z,1022.75
2018-02-22T06:21:43.415Z,1022.78
2018-02-22T06:22:43.380Z,1022.75
2018-02-22T06:23:43.348Z,1022.71
2018-02-22T06:24:43.341Z,1022.78
2018-02-22T06:25:43.278Z,1022.78
2018-02-22T06:26:43.245Z,1022.77
2018-02-22T06:27:43.215Z,1022.75
2018-02-22T06:28:43.182Z,1022.75
2018-02-22T06:29:43.171Z,1022.72
2018-02-22T06:30:43.109Z,1022.73
2018-02-22T06:31:43.074Z,1022.76
2018-02-22T06:32:43.042Z,1022.68
2018-02-22T06:33:43.018Z,1022.73
2018-02-22T06:34:43.004Z,1022.67
2018-02-22T06:35:42.936Z,1022.71
2018-02-22T06:36:42.903Z,1022.69
2018-02-22T06:37:42.942Z,1022.73
2018-02-22T06:38:42.836Z,1022.71
2018-02-22T06:39:42.835Z,1022.71
2018-02-22T06:40:42.774Z,1022.69
2018-02-22T06:41:42.769Z,1022.68
2018-02-22T06:42:42.702Z,1022.66
2018-02-22T06:43:42.671Z,1022.69
2018-02-22T06:44:42.670Z,1022.66
2018-02-22T06:45:42.604Z,1022.68
2018-02-22T06:46:42.572Z,1022.67
2018-02-22T06:47:42.715Z,1022.73
2018-02-22T06:48:42.501Z,1022.76
2018-02-22T06:49:42.512Z,1022.79
2018-02-22T06:50:42.455Z,1022.78
2018-02-22T06:51:42.414Z,1022.77
2018-02-22T06:52:42.363Z,1022.83
2018-02-22T06:53:42.335Z,1022.78
2018-02-22T06:54:42.304Z,1022.79
2018-02-22T06:55:42.289Z,1022.83
2018-02-22T06:56:42.236Z,1022.86
2018-02-22T06:57:42.198Z,1022.89
2018-02-22T06:58:42.173Z,1022.91
2018-02-22T06:59:42.138Z,1022.91
2018-02-22T07:00:42.121Z,1022.91
2018-02-22T07:01:42.067Z,1022.94
2018-02-22T07:02:42.030Z,1022.90
2018-02-22T07:03:41.993Z,1022.91
2018-02-22T07:04:41.960Z,1022.90
2018-02-22T07:05:41.954Z,1022.90
2018-02-22T07:06:41.921Z,1022.92
2018-02-22T07:07:41.862Z,1022.91
2018-02-22T07:08:41.830Z,1022.92
2018-02-22T07:09:41.804Z,1022.97
2018-02-22T07:10:41.873Z,1022.95
2018-02-22T07:11:41.736Z,1022.92
2018-02-22T07:12:41.698Z,1022.93
2018-02-22T07:13:41.664Z,1023.00
2018-02-22T07:14:41.629Z,1023.00
2018-02-22T07:15:41.618Z,1022.99
2018-02-22T07:16:41.563Z,1023.05
2018-02-22T07:17:41.530Z,1023.05
2018-02-22T07:18:41.570Z,1023.05
2018-02-22T07:19:41.459Z,1023.03
2018-02-22T07:20:41.461Z,1023.07
2018-02-22T07:21:41.398Z,1023.07
2018-02-22T07:22:41.357Z,1023.05
2018-02-22T07:23:41.330Z,1023.06
2018-02-22T07:24:41.306Z,1023.02
2018-02-22T07:25:41.294Z,1023.09
2018-02-22T07:26:41.229Z,1023.10
2018-02-22T07:27:41.225Z,1023.05
2018-02-22T07:28:41.163Z,1023.06
2018-02-22T07:29:41.158Z,1023.05
2018-02-22T07:30:41.112Z,1023.08
2018-02-22T07:31:41.062Z,1023.02
2018-02-22T07:32:41.055Z,1023.04
2018-02-22T07:33:40.994Z,1023.05
2018-02-22T07:34:44.235Z,1023.07
2018-02-22T07:35:41.682Z,1023.07
2018-02-22T07:36:40.919Z,1023.06
2018-02-22T07:37:40.865Z,1023.08
2018-02-22T07:38:40.835Z,1023.09
2018-02-22T07:39:40.829Z,1023.10
2018-02-22T07:40:40.769Z,1023.11
2018-02-22T07:41:40.740Z,1023.11
2018-02-22T07:42:40.696Z,1023.11
2018-02-22T07:43:40.667Z,1023.12
2018-02-22T07:44:40.668Z,1023.20
2018-02-22T07:45:40.604Z,1023.13
2018-02-22T07:46:40.568Z,1023.16
2018-02-22T07:47:40.541Z,1023.22
2018-02-22T07:48:40.536Z,1023.17
2018-02-22T07:49:40.470Z,1023.19
2018-02-22T07:50:40.471Z,1023.18
2018-02-22T07:51:40.412Z,1023.18
2018-02-22T07:52:40.378Z,1023.19
2018-02-22T07:53:40.375Z,1023.19
2018-02-22T07:54:40.368Z,1023.16
2018-02-22T07:55:40.297Z,1023.22
2018-02-22T07:56:40.259Z,1023.13
2018-02-22T07:57:40.215Z,1023.18
2018-02-22T07:58:40.224Z,1023.20
2018-02-22T07:59:40.153Z,1023.19
2018-02-22T08:00:40.151Z,1023.20
2018-02-22T08:01:40.093Z,1023.20
2018-02-22T08:02:40.169Z,1023.23
2018-02-22T08:03:40.020Z,1023.19
2018-02-22T08:04:40.151Z,1023.18
2018-02-22T08:05:39.996Z,1023.20
2018-02-22T08:06:39.934Z,1023.23
2018-02-22T08:07:39.903Z,1023.24
2018-02-22T08:08:39.866Z,1023.25
2018-02-22T08:09:39.870Z,1023.24
2018-02-22T08:10:39.807Z,1023.26
2018-02-22T08:11:39.787Z,1023.27
2018-02-22T08:12:39.746Z,1023.29
2018-02-22T08:13:39.740Z,1023.28
2018-02-22T08:14:39.681Z,1023.25
2018-02-22T08:15:40.630Z,1023.24
2018-02-22T08:16:39.621Z,1023.28
2018-02-22T08:17:39.599Z,1023.25
2018-02-22T08:18:39.583Z,1023.23
2018-02-22T08:19:39.531Z,1023.28
2018-02-22T08:20:39.501Z,1023.25
2018-02-22T08:21:39.478Z,1023.29
2018-02-22T08:22:39.449Z,1023.30
2018-02-22T08:23:39.454Z,1023.29
2018-02-22T08:24:39.390Z,1023.32
2018-02-22T08:25:39.357Z,1023.31
2018-02-22T08:26:39.334Z,1023.30
2018-02-22T08:27:39.323Z,1023.34
2018-02-22T08:28:39.336Z,1023.28
2018-02-22T08:29:39.252Z,1023.31
2018-02-22T08:30:39.254Z,1023.26
2018-02-22T08:31:39.205Z,1023.31
2018-02-22T08:32:39.176Z,1023.34
2018-02-22T08:33:39.150Z,1023.38
2018-02-22T08:34:39.124Z,1023.40
2018-02-22T08:35:39.136Z,1023.39
2018-02-22T08:36:39.084Z,1023.43
2018-02-22T08:37:39.049Z,1023.46
2018-02-22T08:38:39.027Z,1023.41
2018-02-22T08:39:39.003Z,1023.44
2018-02-22T08:40:39.008Z,1023.46
2018-02-22T08:41:38.963Z,1023.49
2018-02-22T08:42:38.934Z,1023.50
2018-02-22T08:43:38.917Z,1023.51
2018-02-22T08:44:38.898Z,1023.54
2018-02-22T08:45:38.894Z,1023.55
2018-02-22T08:46:38.851Z,1023.54
2018-02-22T08:47:38.828Z,1023.54
2018-02-22T08:48:38.811Z,1023.53
2018-02-22T08:49:38.794Z,1023.50
2018-02-22T08:50:38.793Z,1023.50
2018-02-22T08:51:38.748Z,1023.52
2018-02-22T08:52:38.735Z,1023.46
2018-02-22T08:53:39.154Z,1023.53
2018-02-22T08:54:38.689Z,1023.53
2018-02-22T08:55:38.670Z,1023.51
2018-02-22T08:56:38.651Z,1023.54
2018-02-22T08:57:38.630Z,1023.53
2018-02-22T08:58:38.640Z,1023.54
2018-02-22T08:59:38.599Z,1023.58
2018-02-22T09:00:38.581Z,1023.58
2018-02-22T09:01:38.570Z,1023.60
2018-02-22T09:02:38.547Z,1023.55
2018-02-22T09:03:38.559Z,1023.56
2018-02-22T09:04:38.514Z,1023.58
2018-02-22T09:05:38.508Z,1023.59
2018-02-22T09:06:38.478Z,1023.60
2018-02-22T09:07:38.460Z,1023.60
2018-02-22T09:08:38.473Z,1023.60
2018-02-22T09:09:38.437Z,1023.58
2018-02-22T09:10:38.417Z,1023.56
2018-02-22T09:11:38.393Z,1023.62
2018-02-22T09:12:38.381Z,1023.62
2018-02-22T09:13:38.396Z,1023.56
2018-02-22T09:14:38.373Z,1023.61
2018-02-22T09:15:38.385Z,1023.60
2018-02-22T09:16:38.317Z,1023.60
2018-02-22T09:17:38.319Z,1023.58
2018-02-22T09:18:38.314Z,1023.61
2018-02-22T09:19:38.272Z,1023.62
2018-02-22T09:20:38.319Z,1023.57
2018-02-22T09:21:38.251Z,1023.62
2018-02-22T09:22:38.230Z,1023.60
2018-02-22T09:23:38.224Z,1023.57
2018-02-22T09:24:38.203Z,1023.58
2018-02-22T09:25:38.235Z,1023.61
2018-02-22T09:26:38.178Z,1023.55
2018-02-22T09:27:38.156Z,1023.51
2018-02-22T09:28:38.153Z,1023.52
2018-02-22T09:29:38.169Z,1023.53
2018-02-22T09:30:38.161Z,1023.51
2018-02-22T09:31:38.110Z,1023.50
2018-02-22T09:32:38.095Z,1023.46
2018-02-22T09:33:38.084Z,1023.50
2018-02-22T09:34:38.069Z,1023.50
2018-02-22T09:35:38.082Z,1023.48
2018-02-22T09:36:38.040Z,1023.47
2018-02-22T09:37:38.034Z,1023.46
2018-02-22T09:38:38.041Z,1023.49
2018-02-22T09:39:38.024Z,1023.51
2018-02-22T09:40:37.989Z,1023.51
2018-02-22T09:41:37.971Z,1023.51
2018-02-22T09:42:37.956Z,1023.51
2018-02-22T09:43:37.971Z,1023.49
2018-02-22T09:44:37.933Z,1023.50
2018-02-22T09:45:37.922Z,1023.51
2018-02-22T09:46:37.916Z,1023.49
2018-02-22T09:47:37.894Z,1023.45
2018-02-22T09:48:37.910Z,1023.45
2018-02-22T09:49:37.887Z,1023.47
2018-02-22T09:50:37.860Z,1023.46
2018-02-22T09:51:37.845Z,1023.43
2018-02-22T09:52:37.833Z,1023.46
2018-02-22T09:53:37.846Z,1023.46
2018-02-22T09:54:37.805Z,1023.47
2018-02-22T09:55:37.818Z,1023.45
2018-02-22T09:56:37.777Z,1023.47
2018-02-22T09:57:37.803Z,1023.45
2018-02-22T09:58:37.798Z,1023.50
2018-02-22T09:59:37.745Z,1023.52
2018-02-22T10:00:37.759Z,1023.49
2018-02-22T10:01:37.814Z,1023.55
2018-02-22T10:02:37.705Z,1023.52
2018-02-22T10:03:37.703Z,1023.53
2018-02-22T10:04:37.682Z,1023.52
2018-02-22T10:05:37.699Z,1023.52
2018-02-22T10:06:37.665Z,1023.52
2018-02-22T10:07:37.649Z,1023.51
2018-02-22T10:08:37.643Z,1023.52
2018-02-22T10:09:37.637Z,1023.47
2018-02-22T10:10:37.639Z,1023.46
2018-02-22T10:11:37.605Z,1023.45
2018-02-22T10:12:37.588Z,1023.46
2018-02-22T10:13:37.577Z,1023.49
2018-02-22T10:14:37.563Z,1023.50
2018-02-22T10:15:37.579Z,1023.52
2018-02-22T10:16:37.537Z,1023.51
2018-02-22T10:17:37.524Z,1023.52
2018-02-22T10:18:37.534Z,1023.52
2018-02-22T10:19:37.494Z,1023.45
2018-02-22T10:20:37.480Z,1023.44
2018-02-22T10:21:37.470Z,1023.49
2018-02-22T10:22:37.451Z,1023.42
2018-02-22T10:23:37.462Z,1023.39
2018-02-22T10:24:37.426Z,1023.40
2018-02-22T10:25:37.421Z,1023.41
2018-02-22T10:26:37.401Z,1023.40
2018-02-22T10:27:37.379Z,1023.39
2018-02-22T10:28:37.391Z,1023.43
2018-02-22T10:29:37.351Z,1023.40
2018-02-22T10:30:37.347Z,1023.35
2018-02-22T10:31:37.325Z,1023.34
2018-02-22T10:32:37.304Z,1023.34
2018-02-22T10:33:37.321Z,1023.32
2018-02-22T10:34:37.272Z,1023.28
2018-02-22T10:35:37.260Z,1023.28
2018-02-22T10:36:37.242Z,1023.25
2018-02-22T10:37:37.228Z,1023.27
2018-02-22T10:38:37.237Z,1023.29
2018-02-22T10:39:37.197Z,1023.24
2018-02-22T10:40:37.210Z,1023.19
2018-02-22T10:41:37.163Z,1023.28
2018-02-22T10:42:37.138Z,1023.22
2018-02-22T10:43:37.128Z,1023.23
2018-02-22T10:44:37.106Z,1023.22
2018-02-22T10:45:37.116Z,1023.19
2018-02-22T10:46:37.090Z,1023.17
2018-02-22T10:47:37.049Z,1023.22
2018-02-22T10:48:37.032Z,1023.24
2018-02-22T10:49:37.014Z,1023.24
2018-02-22T10:50:37.025Z,1023.28
2018-02-22T10:51:37.076Z,1023.23
2018-02-22T10:52:36.958Z,1023.22
2018-02-22T10:53:36.967Z,1023.27
2018-02-22T10:54:36.921Z,1023.27
2018-02-22T10:55:36.899Z,1023.29
2018-02-22T10:56:36.893Z,1023.33
2018-02-22T10:57:36.863Z,1023.30
2018-02-22T10:58:36.872Z,1023.27
2018-02-22T10:59:36.835Z,1023.31
2018-02-22T11:00:36.804Z,1023.33
2018-02-22T11:01:36.786Z,1023.36
2018-02-22T11:02:36.778Z,1023.36
2018-02-22T11:03:36.786Z,1023.31
2018-02-22T11:04:36.741Z,1023.34
2018-02-22T11:05:36.731Z,1023.30
2018-02-22T11:06:36.712Z,1023.32
2018-02-22T11:07:36.695Z,1023.32
2018-02-22T11:08:36.706Z,1023.25
2018-02-22T11:09:36.667Z,1023.30
2018-02-22T11:10:36.658Z,1023.31
2018-02-22T11:11:36.645Z,1023.30
2018-02-22T11:12:36.633Z,1023.33
2018-02-22T11:13:36.648Z,1023.35
2018-02-22T11:14:36.695Z,1023.29
2018-02-22T11:15:36.625Z,1023.30
2018-02-22T11:16:36.580Z,1023.29
2018-02-22T11:17:36.571Z,1023.24
2018-02-22T11:18:36.564Z,1023.27
2018-02-22T11:19:36.561Z,1023.25
2018-02-22T11:20:36.579Z,1023.25
2018-02-22T11:21:36.536Z,1023.31
2018-02-22T11:22:36.549Z,1023.28
2018-02-22T11:23:36.526Z,1023.26
2018-02-22T11:24:36.507Z,1023.27
2018-02-22T11:25:36.493Z,1023.23
2018-02-22T11:26:36.480Z,1023.27
2018-02-22T11:27:36.513Z,1023.29
2018-02-22T11:28:36.462Z,1023.26
2018-02-22T11:29:36.458Z,1023.19
2018-02-22T11:30:36.445Z,1023.16
2018-02-22T11:31:36.435Z,1023.13
2018-02-22T11:32:36.449Z,1023.08
2018-02-22T11:33:36.415Z,1023.09
2018-02-22T11:34:36.408Z,1023.11
2018-02-22T11:35:36.411Z,1023.10
2018-02-22T11:36:36.400Z,1023.09
2018-02-22T11:37:36.409Z,1023.01
2018-02-22T11:38:36.371Z,1023.03
2018-02-22T11:39:36.350Z,1023.01
2018-02-22T11:40:36.340Z,1023.02
2018-02-22T11:41:36.336Z,1023.01
2018-02-22T11:42:36.343Z,1022.99
2018-02-22T11:43:36.308Z,1022.99
2018-02-22T11:44:36.290Z,1022.95
2018-02-22T11:45:36.270Z,1022.94
2018-02-22T11:46:36.265Z,1022.89
2018-02-22T11:47:36.269Z,1022.88
2018-02-22T11:48:36.235Z,1022.89
2018-02-22T11:49:36.218Z,1022.92
2018-02-22T11:50:36.197Z,1022.93
2018-02-22T11:51:36.180Z,1022.84
2018-02-22T11:52:36.197Z,1022.85
2018-02-22T11:53:36.148Z,1022.81
2018-02-22T11:54:36.130Z,1022.86
2018-02-22T11:55:36.138Z,1022.86
2018-02-22T11:56:36.103Z,1022.84
2018-02-22T11:57:36.074Z,1022.91
2018-02-22T11:58:36.062Z,1022.82
2018-02-22T11:59:36.049Z,1022.82
2018-02-22T12:00:36.066Z,1022.84
2018-02-22T12:01:36.020Z,1022.82
2018-02-22T12:02:35.991Z,1022.83
2018-02-22T12:03:35.977Z,1022.83
2018-02-22T12:04:35.957Z,1022.82
2018-02-22T12:05:36.021Z,1022.78